首页
METAR-TAF:

METAR-TAF

机场 :

Pitt-Greenville Airport

格林维尔, 北卡罗来纳州, 美国

纬度: 35-38N, 经度: 077-24W, 海拔: 8米

当前天气观测

该预报发布于18分钟前的21:35 UTC
风速3节,风向
温度 9°C
湿度 57%
气压 1027 hPa
能見度: 16.1公里
散云层高于400英尺
多云层高于3300英尺
阴天层高于4600英尺

METAR: KPGV 262135Z AUTO 08003KT 10SM RA SCT004 BKN033 OVC046 09/01 A3032 RMK AO2

时间: 16:53 (21:53 UTC)

预报

该预报发布于4小时和29分钟前的17:24 UTC
预报有效从26日的 18点(UTC)到 27日的 18点(UTC)
风速10节,风向,有时为16节阵风
能見度: 10公里
阴天层高于5000英尺
从 26日的 2100点(UTC)
风速10节,风向
能見度: 10公里
阴天层高于4000英尺
附近有阵雨
从 27日的 0000点(UTC)
风速8节,风向东转东北
能見度: 9.7公里
阴天层高于3000英尺
小雨, 轻雾
从 27日的 0400点(UTC)
风速5节,风向多变
能見度: 9.7公里
阴天层高于700英尺
小雨, 轻雾
从 27日的 1000点(UTC)
风速5节,风向西南
能見度: 6.4公里
阴天层高于500英尺
轻雾
从 27日的 1600点(UTC)
风速9节,风向西南
能見度: 10公里
散云层高于2500英尺

TAF: KPGV 261724Z 2618/2718 09010G16KT P6SM OVC050 FM262100 09010KT P6SM VCSH OVC040 FM270000 07008KT 6SM -RA BR OVC030 FM270400 VRB05KT 6SM -RA BR OVC007 FM271000 23005KT 4SM BR OVC005 FM271600 23009KT P6SM SCT025 AMD LTD TO CLD VIS AND WIND

超过4000个机场的气象观测和天气预报(METAR&TAF报告)。

可查询的气象台以黄色和红色小点在地图上表示。

将鼠标移到小点上方,可查看气象台名称。

然后点击查看天气观测和预报。

如需切换地图:点击带黑十字的绿色按钮放大地图;点击带横线的绿色按钮缩小地图;或者点击绿色箭头查看邻近地区的地图。


METAR-TAF: